Time;durP1;ratioP1;P1;durP2;ratioP2;P2;SDS_P1;SDS_P2;PMS_P1;PMS_P2;Temp;Humidity;BMP_temperature;BMP_pressure;BME280_temperature;BME280_humidity;BME280_pressure;Samples;Min_cycle;Max_cycle;Signal;HPM_P1;HPM_P2
2021/07/11 00:00:49;;;;;;;1999.90;999.90;;;6.40;99.90;;;;;;5053117;28;20188;-39
2021/07/11 00:03:16;;;;;;;1999.90;999.90;;;6.50;99.90;;;;;;5053230;28;20177;-40
2021/07/11 00:05:43;;;;;;;1999.90;999.90;;;6.50;99.90;;;;;;5053146;28;20166;-40
2021/07/11 00:08:10;;;;;;;1999.90;999.90;;;6.50;99.90;;;;;;5052935;28;20264;-40
2021/07/11 00:10:37;;;;;;;1999.90;999.90;;;6.50;99.90;;;;;;5053105;28;20173;-43
2021/07/11 00:13:04;;;;;;;1999.90;999.90;;;6.60;99.90;;;;;;5052937;28;20212;-42
2021/07/11 00:15:31;;;;;;;1999.90;999.90;;;6.50;99.90;;;;;;5053025;28;20200;-40
2021/07/11 00:18:00;;;;;;;1999.90;999.90;;;6.40;99.90;;;;;;5053037;28;20187;-39
2021/07/11 00:20:27;;;;;;;1999.90;999.90;;;6.40;99.90;;;;;;5052859;28;20183;-40
2021/07/11 00:22:55;;;;;;;1999.90;999.90;;;6.40;99.90;;;;;;5052893;28;20206;-43
2021/07/11 00:25:22;;;;;;;1999.90;999.90;;;6.30;99.90;;;;;;5052911;28;20195;-44
2021/07/11 00:27:50;;;;;;;1999.90;999.90;;;6.30;99.90;;;;;;5052630;28;20215;-41
2021/07/11 00:30:18;;;;;;;1999.90;999.90;;;6.20;99.90;;;;;;5053042;28;20171;-40
2021/07/11 00:32:45;;;;;;;1999.90;999.90;;;6.30;99.90;;;;;;5052967;28;20165;-40
2021/07/11 00:35:12;;;;;;;1999.90;999.90;;;6.30;99.90;;;;;;5053025;28;20658;-40
2021/07/11 00:37:39;;;;;;;1999.90;999.90;;;6.30;99.90;;;;;;5052785;28;20172;-40
2021/07/11 00:40:08;;;;;;;1999.90;999.90;;;6.20;99.90;;;;;;5052803;28;20182;-40
2021/07/11 00:42:35;;;;;;;1999.90;999.90;;;6.20;99.90;;;;;;5052811;28;20171;-43
2021/07/11 00:45:02;;;;;;;1999.90;999.90;;;6.20;99.90;;;;;;5052662;28;20759;-43
2021/07/11 00:47:29;;;;;;;1999.90;999.90;;;6.30;99.90;;;;;;5052563;28;20211;-40
2021/07/11 00:49:56;;;;;;;1999.90;999.90;;;6.30;99.90;;;;;;5052739;28;20629;-40
2021/07/11 00:52:23;;;;;;;1999.90;999.90;;;6.30;99.90;;;;;;5052620;28;20165;-40
2021/07/11 00:54:50;;;;;;;1999.90;999.90;;;6.30;99.90;;;;;;5051282;28;20534;-40
2021/07/11 00:57:16;;;;;;;1999.90;999.90;;;6.20;99.90;;;;;;5052654;28;20178;-40
2021/07/11 00:59:44;;;;;;;1999.90;999.90;;;6.30;99.90;;;;;;5052685;28;20628;-41
2021/07/11 01:02:40;;;;;;;1999.90;999.90;;;6.30;99.90;;;;;;5052550;28;20182;-40
2021/07/11 01:05:09;;;;;;;1999.90;999.90;;;6.30;99.90;;;;;;5021819;28;20287;-40
2021/07/11 01:07:53;;;;;;;1999.90;999.90;;;6.20;99.90;;;;;;5052290;28;20285;-41
2021/07/11 01:11:02;;;;;;;1999.90;999.90;;;6.10;99.90;;;;;;5052549;28;20162;-44
2021/07/11 01:13:30;;;;;;;1999.90;999.90;;;6.10;99.90;;;;;;5052197;28;20220;-40
2021/07/11 01:16:02;;;;;;;1999.90;999.90;;;6.10;99.90;;;;;;5052574;28;20202;-41
2021/07/11 01:18:30;;;;;;;1999.90;999.90;;;6.10;99.90;;;;;;5052426;28;20522;-39
2021/07/11 01:20:59;;;;;;;1999.90;999.90;;;6.20;99.90;;;;;;5053459;28;20170;-40
2021/07/11 01:23:52;;;;;;;1999.90;999.90;;;6.20;99.90;;;;;;5056252;28;20165;-40
2021/07/11 01:26:20;;;;;;;1999.90;999.90;;;6.10;99.90;;;;;;5056057;28;20672;-39
2021/07/11 01:28:53;;;;;;;1999.90;999.90;;;6.00;99.90;;;;;;5056213;28;20165;-40
2021/07/11 01:31:21;;;;;;;1999.90;999.90;;;5.90;99.90;;;;;;5056209;28;20173;-39
2021/07/11 01:33:49;;;;;;;1999.90;999.90;;;5.90;99.90;;;;;;5056103;28;20195;-39
2021/07/11 01:36:17;;;;;;;1999.90;999.90;;;5.90;99.90;;;;;;5056222;28;20173;-40
2021/07/11 01:38:46;;;;;;;1999.90;999.90;;;5.80;99.90;;;;;;5055991;28;20166;-40
2021/07/11 01:41:13;;;;;;;1999.90;999.90;;;5.70;99.90;;;;;;5055933;28;20171;-40
2021/07/11 01:43:42;;;;;;;1999.90;999.90;;;5.70;99.90;;;;;;5055908;28;20217;-39
2021/07/11 01:46:10;;;;;;;1999.90;999.90;;;5.80;99.90;;;;;;5055711;28;20196;-42
2021/07/11 01:48:38;;;;;;;1999.90;999.90;;;5.70;99.90;;;;;;5055811;28;20170;-40
2021/07/11 01:51:05;;;;;;;1999.90;999.90;;;5.80;99.90;;;;;;5055661;28;20193;-40
2021/07/11 01:53:38;;;;;;;1999.90;999.90;;;5.80;99.90;;;;;;5055718;28;20235;-42
2021/07/11 01:56:07;;;;;;;1999.90;999.90;;;5.60;99.90;;;;;;5055554;28;20201;-40
2021/07/11 01:58:34;;;;;;;1999.90;999.90;;;5.70;99.90;;;;;;5055672;28;20171;-39
2021/07/11 02:01:06;;;;;;;1999.90;999.90;;;5.80;99.90;;;;;;5055500;28;20261;-39
2021/07/11 02:03:32;;;;;;;1999.90;999.90;;;5.80;99.90;;;;;;5055448;28;20549;-39
2021/07/11 02:05:59;;;;;;;1999.90;999.90;;;6.00;99.90;;;;;;5055378;28;20285;-39
2021/07/11 02:08:26;;;;;;;1999.90;999.90;;;6.00;99.90;;;;;;5055389;28;20171;-40
2021/07/11 02:10:54;;;;;;;1999.90;999.90;;;6.00;99.90;;;;;;5055403;28;20643;-39
2021/07/11 02:13:29;;;;;;;1999.90;999.90;;;6.00;99.90;;;;;;5055250;28;20302;-39
2021/07/11 02:16:08;;;;;;;1999.90;999.90;;;5.90;99.90;;;;;;5055461;28;20639;-40
2021/07/11 02:18:37;;;;;;;1999.90;999.90;;;5.90;99.90;;;;;;5055260;28;20187;-39
2021/07/11 02:21:06;;;;;;;1999.90;999.90;;;5.70;99.90;;;;;;5055140;28;20161;-39
2021/07/11 02:23:34;;;;;;;1999.90;999.90;;;5.60;99.90;;;;;;5055093;28;20175;-40
2021/07/11 02:26:01;;;;;;;1999.90;999.90;;;5.70;99.90;;;;;;5055003;28;20204;-40
2021/07/11 02:28:34;;;;;;;1999.90;999.90;;;5.70;99.90;;;;;;5055037;28;20167;-40
2021/07/11 02:31:02;;;;;;;1999.90;999.90;;;5.70;99.90;;;;;;5054973;28;20259;-40
2021/07/11 02:33:36;;;;;;;1999.90;999.90;;;5.60;99.90;;;;;;5054634;28;20183;-40
2021/07/11 02:36:06;;;;;;;1999.90;999.90;;;5.60;99.90;;;;;;5054786;28;20166;-39
2021/07/11 02:38:42;;;;;;;1999.90;999.90;;;5.50;99.90;;;;;;5054913;28;20193;-40
2021/07/11 02:41:09;;;;;;;1999.90;999.90;;;5.40;99.90;;;;;;5054807;28;20245;-41
2021/07/11 02:43:37;;;;;;;1999.90;999.90;;;5.30;99.90;;;;;;5054791;28;20649;-40
2021/07/11 02:46:04;;;;;;;1999.90;999.90;;;5.40;99.90;;;;;;5054534;28;20189;-43
2021/07/11 02:48:33;;;;;;;1999.90;999.90;;;5.40;99.90;;;;;;5054657;28;20167;-39
2021/07/11 02:51:01;;;;;;;1999.90;999.90;;;5.50;99.90;;;;;;5054548;28;20161;-39
2021/07/11 02:53:29;;;;;;;1999.90;999.90;;;5.50;99.90;;;;;;5054567;28;20223;-42
2021/07/11 02:55:58;;;;;;;1999.90;999.90;;;5.40;99.90;;;;;;5054565;28;20173;-40
2021/07/11 02:58:27;;;;;;;1999.90;999.90;;;5.50;99.90;;;;;;5054475;28;20218;-40
2021/07/11 03:00:54;;;;;;;1999.90;999.90;;;5.40;99.90;;;;;;5054450;28;20233;-40
2021/07/11 03:03:22;;;;;;;1999.90;999.90;;;5.40;99.90;;;;;;5054356;28;20168;-40
2021/07/11 03:05:49;;;;;;;1999.90;999.90;;;5.40;99.90;;;;;;5054252;28;20179;-40
2021/07/11 03:08:16;;;;;;;1999.90;999.90;;;5.30;99.90;;;;;;5054118;28;20244;-39
2021/07/11 03:10:44;;;;;;;1999.90;999.90;;;5.40;99.90;;;;;;5054099;28;20181;-40
2021/07/11 03:13:12;;;;;;;1999.90;999.90;;;5.30;99.90;;;;;;5054008;28;20216;-40
2021/07/11 03:15:39;;;;;;;1999.90;999.90;;;5.30;99.90;;;;;;5054087;28;20173;-40
2021/07/11 03:18:06;;;;;;;1999.90;999.90;;;5.20;99.90;;;;;;5054139;28;20176;-40
2021/07/11 03:20:34;;;;;;;1999.90;999.90;;;5.20;99.90;;;;;;5054179;28;20261;-40
2021/07/11 03:23:02;;;;;;;1999.90;999.90;;;5.10;99.90;;;;;;5053924;28;20538;-40
2021/07/11 03:25:29;;;;;;;1999.90;999.90;;;5.20;99.90;;;;;;5054080;28;20240;-40
2021/07/11 03:28:00;;;;;;;1999.90;999.90;;;5.20;99.90;;;;;;5053785;28;20217;-42
2021/07/11 03:30:35;;;;;;;1999.90;999.90;;;5.10;99.90;;;;;;5053929;28;20238;-42
2021/07/11 03:33:05;;;;;;;1999.90;999.90;;;5.00;99.90;;;;;;5053844;28;20835;-42
2021/07/11 03:35:40;;;;;;;1999.90;999.90;;;4.90;99.90;;;;;;5053751;28;20632;-42
2021/07/11 03:38:13;;;;;;;1999.90;999.90;;;4.90;99.90;;;;;;5053994;28;20625;-42
2021/07/11 03:40:44;;;;;;;1999.90;999.90;;;4.80;99.90;;;;;;5053734;28;20162;-42
2021/07/11 03:43:13;;;;;;;1999.90;999.90;;;4.80;99.90;;;;;;5053017;28;20159;-42
2021/07/11 03:45:41;;;;;;;1999.90;999.90;;;4.70;99.90;;;;;;5053466;28;20174;-42
2021/07/11 03:48:16;;;;;;;1999.90;999.90;;;4.70;99.90;;;;;;5053538;28;20199;-44
2021/07/11 03:50:49;;;;;;;1999.90;999.90;;;4.70;99.90;;;;;;5035723;28;20161;-42
2021/07/11 03:53:21;;;;;;;1999.90;999.90;;;4.70;99.90;;;;;;5053421;28;20176;-42
2021/07/11 03:55:49;;;;;;;1999.90;999.90;;;4.80;99.90;;;;;;5053375;28;20161;-42
2021/07/11 03:58:18;;;;;;;1999.90;999.90;;;4.90;99.90;;;;;;5053346;28;20170;-42
2021/07/11 04:00:46;;;;;;;1999.90;999.90;;;4.80;99.90;;;;;;5053338;28;20169;-42
2021/07/11 04:03:13;;;;;;;1999.90;999.90;;;4.70;99.90;;;;;;5053093;28;20182;-42
2021/07/11 04:05:40;;;;;;;1999.90;999.90;;;4.70;99.90;;;;;;5053170;28;20177;-42
2021/07/11 04:08:16;;;;;;;1999.90;999.90;;;4.70;99.90;;;;;;5053223;28;20179;-42
2021/07/11 04:10:44;;;;;;;1999.90;999.90;;;4.70;99.90;;;;;;5053167;28;20165;-39
2021/07/11 04:13:14;;;;;;;1999.90;999.90;;;4.60;99.90;;;;;;5052879;28;20217;-39
2021/07/11 04:15:47;;;;;;;1999.90;999.90;;;4.70;99.90;;;;;;5052873;28;20176;-39
2021/07/11 04:18:15;;;;;;;1999.90;999.90;;;4.70;99.90;;;;;;5052998;28;20507;-39
2021/07/11 04:20:45;;;;;;;1999.90;999.90;;;4.80;99.90;;;;;;5052923;28;20165;-39
2021/07/11 04:23:13;;;;;;;1999.90;999.90;;;4.80;99.90;;;;;;5052936;28;20508;-43
2021/07/11 04:25:42;;;;;;;1999.90;999.90;;;4.80;99.90;;;;;;5052843;28;20172;-39
2021/07/11 04:28:10;;;;;;;1999.90;999.90;;;4.80;99.90;;;;;;5052815;28;20531;-39
2021/07/11 04:30:38;;;;;;;1999.90;999.90;;;4.70;99.90;;;;;;5052900;28;20169;-41
2021/07/11 04:33:05;;;;;;;1999.90;999.90;;;4.70;99.90;;;;;;5052843;28;20173;-39
2021/07/11 04:35:32;;;;;;;1999.90;999.90;;;4.70;99.90;;;;;;5052986;28;20640;-39
2021/07/11 04:37:59;;;;;;;1999.90;999.90;;;4.70;99.90;;;;;;5052808;28;20268;-39
2021/07/11 04:40:26;;;;;;;1999.90;999.90;;;4.70;99.90;;;;;;5052814;28;20187;-40
2021/07/11 04:42:53;;;;;;;1999.90;999.90;;;4.60;99.90;;;;;;5052623;28;20260;-39
2021/07/11 04:45:20;;;;;;;1999.90;999.90;;;4.80;99.90;;;;;;5052591;28;20256;-39
2021/07/11 04:47:46;;;;;;;1999.90;999.90;;;4.80;99.90;;;;;;5052490;28;20200;-41
2021/07/11 04:50:13;;;;;;;1999.90;999.90;;;4.70;99.90;;;;;;5052567;28;20188;-42
2021/07/11 04:52:41;;;;;;;1999.90;999.90;;;4.70;99.90;;;;;;5052674;28;20658;-42
2021/07/11 04:55:15;;;;;;;1999.90;999.90;;;4.80;99.90;;;;;;5054066;28;20639;-42
2021/07/11 04:57:43;;;;;;;1999.90;999.90;;;4.70;99.90;;;;;;5056649;28;20616;-43
2021/07/11 05:00:12;;;;;;;1999.90;999.90;;;4.70;99.90;;;;;;5056559;28;20531;-44
2021/07/11 05:02:39;;;;;;;1999.90;999.90;;;4.70;99.90;;;;;;5056671;28;20161;-42
2021/07/11 05:05:07;;;;;;;1999.90;999.90;;;4.70;99.90;;;;;;5056726;28;20177;-42
2021/07/11 05:07:35;;;;;;;1999.90;999.90;;;4.60;99.90;;;;;;5056513;28;20259;-42
2021/07/11 05:10:04;;;;;;;1999.90;999.90;;;4.60;99.90;;;;;;5056545;28;20173;-47
2021/07/11 05:12:31;;;;;;;1999.90;999.90;;;4.60;99.90;;;;;;5056207;28;20577;-42
2021/07/11 05:14:58;;;;;;;1999.90;999.90;;;4.60;99.90;;;;;;5056271;28;20233;-42
2021/07/11 05:17:25;;;;;;;1999.90;999.90;;;4.50;99.90;;;;;;5056260;28;20172;-42
2021/07/11 05:19:52;;;;;;;1999.90;999.90;;;4.50;99.90;;;;;;5056259;28;20161;-42
2021/07/11 05:22:19;;;;;;;1999.90;999.90;;;4.60;99.90;;;;;;5056254;28;20735;-42
2021/07/11 05:24:46;;;;;;;1999.90;999.90;;;4.60;99.90;;;;;;5056166;28;20191;-40
2021/07/11 05:27:13;;;;;;;1999.90;999.90;;;4.60;99.90;;;;;;5056125;28;20233;-43
2021/07/11 05:29:39;;;;;;;1999.90;999.90;;;4.70;99.90;;;;;;5056232;28;20169;-39
2021/07/11 05:32:07;;;;;;;1999.90;999.90;;;4.70;99.90;;;;;;5056183;28;20623;-39
2021/07/11 05:34:33;;;;;;;1999.90;999.90;;;4.60;99.90;;;;;;5056026;28;20169;-40
2021/07/11 05:37:00;;;;;;;1999.90;999.90;;;4.60;99.90;;;;;;5055995;28;20173;-40
2021/07/11 05:39:27;;;;;;;1999.90;999.90;;;4.60;99.90;;;;;;5055972;28;20165;-42
2021/07/11 05:41:54;;;;;;;1999.90;999.90;;;4.60;99.90;;;;;;5055947;28;20169;-42
2021/07/11 05:44:21;;;;;;;1999.90;999.90;;;4.70;99.90;;;;;;5055806;28;20167;-42
2021/07/11 05:46:48;;;;;;;1999.90;999.90;;;4.70;99.90;;;;;;5055662;28;20203;-42
2021/07/11 05:49:15;;;;;;;1999.90;999.90;;;4.60;99.90;;;;;;5055631;28;20617;-48
2021/07/11 05:51:42;;;;;;;1999.90;999.90;;;4.60;99.90;;;;;;5055745;28;20599;-44
2021/07/11 05:54:08;;;;;;;1999.90;999.90;;;4.50;99.90;;;;;;5055762;28;20201;-42
2021/07/11 05:56:35;;;;;;;1999.90;999.90;;;4.40;99.90;;;;;;5055663;28;20252;-47
2021/07/11 05:59:02;;;;;;;1999.90;999.90;;;4.60;99.90;;;;;;5055657;28;20166;-42
2021/07/11 06:01:29;;;;;;;1999.90;999.90;;;4.60;99.90;;;;;;5055551;28;20187;-42
2021/07/11 06:03:56;;;;;;;1999.90;999.90;;;4.60;99.90;;;;;;5055387;28;20266;-44
2021/07/11 06:06:23;;;;;;;1999.90;999.90;;;4.60;99.90;;;;;;5054540;28;20190;-43
2021/07/11 06:08:50;;;;;;;1999.90;999.90;;;4.60;99.90;;;;;;5055301;28;20264;-42
2021/07/11 06:11:17;;;;;;;1999.90;999.90;;;4.50;99.90;;;;;;5055330;28;20712;-42
2021/07/11 06:13:45;;;;;;;1999.90;999.90;;;4.50;99.90;;;;;;5055332;28;20186;-42
2021/07/11 06:16:13;;;;;;;1999.90;999.90;;;4.50;99.90;;;;;;5055421;28;20169;-42
2021/07/11 06:18:40;;;;;;;1999.90;999.90;;;4.40;99.90;;;;;;5055238;28;20263;-40
2021/07/11 06:21:07;;;;;;;1999.90;999.90;;;4.40;99.90;;;;;;5055206;28;20177;-43
2021/07/11 06:23:34;;;;;;;1999.90;999.90;;;4.40;99.90;;;;;;5055085;28;20178;-40
2021/07/11 06:26:01;;;;;;;1999.90;999.90;;;4.50;99.90;;;;;;5055063;28;20206;-41
2021/07/11 06:28:27;;;;;;;1999.90;999.90;;;4.50;99.90;;;;;;5055064;28;20177;-42
2021/07/11 06:30:54;;;;;;;1999.90;999.90;;;4.50;99.90;;;;;;5054966;28;20214;-41
2021/07/11 06:33:22;;;;;;;1999.90;999.90;;;4.50;99.90;;;;;;5054858;28;20276;-44
2021/07/11 06:35:48;;;;;;;1999.90;999.90;;;4.50;99.90;;;;;;5054885;28;20187;-42
2021/07/11 06:38:15;;;;;;;1999.90;999.90;;;4.50;99.90;;;;;;5053545;28;20200;-41
2021/07/11 06:40:42;;;;;;;1999.90;999.90;;;4.70;99.90;;;;;;5054935;28;20656;-41
2021/07/11 06:43:09;;;;;;;1999.90;999.90;;;4.70;99.90;;;;;;5054630;28;20187;-45
2021/07/11 06:45:36;;;;;;;1999.90;999.90;;;4.70;99.90;;;;;;5054752;28;20170;-41
2021/07/11 06:48:03;;;;;;;1999.90;999.90;;;4.80;99.90;;;;;;5054571;28;20608;-42
2021/07/11 06:50:30;;;;;;;1999.90;999.90;;;4.80;99.90;;;;;;5054576;28;20165;-42
2021/07/11 06:52:57;;;;;;;1999.90;999.90;;;4.90;99.90;;;;;;5054497;28;20273;-42
2021/07/11 06:55:24;;;;;;;1999.90;999.90;;;5.00;99.90;;;;;;5054517;28;20173;-42
2021/07/11 06:57:51;;;;;;;1999.90;999.90;;;5.10;99.90;;;;;;5054485;28;20167;-42
2021/07/11 07:00:18;;;;;;;1999.90;999.90;;;5.30;99.90;;;;;;5054373;28;20170;-42
2021/07/11 07:02:45;;;;;;;1999.90;999.90;;;5.40;99.90;;;;;;5054584;28;20227;-42
2021/07/11 07:05:12;;;;;;;1999.90;999.90;;;5.40;99.90;;;;;;5054802;28;20512;-42
2021/07/11 07:07:39;;;;;;;1999.90;999.90;;;5.50;99.90;;;;;;5054186;28;20212;-42
2021/07/11 07:10:09;;;;;;;1999.90;999.90;;;5.60;99.90;;;;;;5054565;28;20509;-42
2021/07/11 07:12:41;;;;;;;1999.90;999.90;;;5.70;99.90;;;;;;5053957;28;20643;-42
2021/07/11 07:15:08;;;;;;;1999.90;999.90;;;5.70;99.90;;;;;;5054211;28;20635;-42
2021/07/11 07:17:35;;;;;;;1999.90;999.90;;;5.80;99.90;;;;;;5053689;28;20173;-44
2021/07/11 07:20:05;;;;;;;1999.90;999.90;;;5.90;99.90;;;;;;5051939;28;20647;-43
2021/07/11 07:22:33;;;;;;;1999.90;999.90;;;6.00;99.90;;;;;;5053690;28;20180;-43
2021/07/11 07:25:00;;;;;;;1999.90;999.90;;;6.00;99.90;;;;;;5053768;28;20179;-42
2021/07/11 07:27:27;;;;;;;1999.90;999.90;;;6.20;99.90;;;;;;5053710;28;20618;-42
2021/07/11 07:29:54;;;;;;;1999.90;999.90;;;6.20;99.90;;;;;;5053665;28;20177;-43
2021/07/11 07:32:21;;;;;;;1999.90;999.90;;;6.30;99.90;;;;;;5053814;28;20639;-41
2021/07/11 07:34:48;;;;;;;1999.90;999.90;;;6.40;99.90;;;;;;5053860;28;20186;-40
2021/07/11 07:37:14;;;;;;;1999.90;999.90;;;6.40;99.90;;;;;;5053742;28;20171;-41
2021/07/11 07:39:42;;;;;;;1999.90;999.90;;;6.50;99.90;;;;;;5053610;28;20224;-44
2021/07/11 07:42:08;;;;;;;1999.90;999.90;;;6.60;99.90;;;;;;5053669;28;20184;-42
2021/07/11 07:44:35;;;;;;;1999.90;999.90;;;6.70;99.90;;;;;;5053541;28;20167;-42
2021/07/11 07:47:02;;;;;;;1999.90;999.90;;;6.80;99.90;;;;;;5053273;28;20602;-42
2021/07/11 07:49:29;;;;;;;1999.90;999.90;;;6.90;99.90;;;;;;5053328;28;20179;-43
2021/07/11 07:51:56;;;;;;;1999.90;999.90;;;7.00;99.90;;;;;;5053486;28;20166;-41
2021/07/11 07:54:23;;;;;;;1999.90;999.90;;;7.10;99.90;;;;;;5053333;28;20224;-42
2021/07/11 07:56:50;;;;;;;1999.90;999.90;;;7.30;99.90;;;;;;5053391;28;20180;-42
2021/07/11 07:59:17;;;;;;;1999.90;999.90;;;7.60;99.90;;;;;;5053289;28;20166;-43
2021/07/11 08:01:44;;;;;;;1999.90;999.90;;;7.70;99.90;;;;;;5053214;28;20651;-43
2021/07/11 08:04:11;;;;;;;1999.90;999.90;;;7.70;99.90;;;;;;5052983;28;20631;-44
2021/07/11 08:06:38;;;;;;;1999.90;999.90;;;7.80;99.90;;;;;;5053060;28;20651;-43
2021/07/11 08:09:05;;;;;;;1999.90;999.90;;;7.90;99.90;;;;;;5053034;28;20185;-44
2021/07/11 08:11:33;;;;;;;1999.90;999.90;;;8.10;99.90;;;;;;5052708;28;20263;-44
2021/07/11 08:14:00;;;;;;;1999.90;999.90;;;8.20;99.90;;;;;;5053076;28;20175;-43
2021/07/11 08:16:27;;;;;;;1999.90;999.90;;;8.30;99.90;;;;;;5053079;28;20180;-43
2021/07/11 08:18:54;;;;;;;1999.90;999.90;;;8.50;99.90;;;;;;5053032;28;20177;-42
2021/07/11 08:21:22;;;;;;;1999.90;999.90;;;8.60;99.90;;;;;;5053101;28;20627;-43
2021/07/11 08:23:49;;;;;;;1999.90;999.90;;;8.70;99.90;;;;;;5052900;28;20235;-44
2021/07/11 08:26:16;;;;;;;1999.90;999.90;;;8.90;99.90;;;;;;5052777;28;20228;-43
2021/07/11 08:28:43;;;;;;;1999.90;999.90;;;9.20;99.90;;;;;;5052690;28;20177;-44
2021/07/11 08:31:10;;;;;;;1999.90;999.90;;;9.30;99.90;;;;;;5052426;28;20169;-43
2021/07/11 08:33:36;;;;;;;1999.90;999.90;;;9.50;99.90;;;;;;5052659;28;20181;-41
2021/07/11 08:36:03;;;;;;;1999.90;999.90;;;9.50;99.90;;;;;;5051287;28;20188;-41
2021/07/11 08:38:30;;;;;;;1999.90;999.90;;;9.60;99.90;;;;;;5052721;28;20708;-41
2021/07/11 08:40:57;;;;;;;1999.90;999.90;;;9.80;99.90;;;;;;5052664;28;20201;-41
2021/07/11 08:43:24;;;;;;;1999.90;999.90;;;9.80;99.90;;;;;;5052660;28;20165;-41
2021/07/11 08:45:51;;;;;;;1999.90;999.90;;;9.90;99.90;;;;;;5052628;28;20169;-41
2021/07/11 08:48:18;;;;;;;1999.90;999.90;;;10.00;99.90;;;;;;5052613;28;20165;-41
2021/07/11 08:50:45;;;;;;;1999.90;999.90;;;10.10;99.90;;;;;;5052598;28;20206;-41
2021/07/11 08:53:15;;;;;;;1999.90;999.90;;;10.10;99.90;;;;;;5052567;28;20176;-44
2021/07/11 08:55:44;;;;;;;1999.90;999.90;;;10.30;99.90;;;;;;5052810;28;20173;-44
2021/07/11 08:58:13;;;;;;;1999.90;999.90;;;10.50;99.90;;;;;;5052302;28;20165;-44
2021/07/11 09:00:40;;;;;;;1999.90;999.90;;;10.60;99.90;;;;;;5052296;28;20169;-45
2021/07/11 09:03:08;;;;;;;1999.90;999.90;;;10.70;99.90;;;;;;5052151;28;20234;-44
2021/07/11 09:05:40;;;;;;;1999.90;999.90;;;10.80;99.90;;;;;;5052438;28;20162;-44
2021/07/11 09:08:12;;;;;;;1999.90;999.90;;;11.00;99.90;;;;;;5052218;28;20201;-43
2021/07/11 09:10:48;;;;;;;1999.90;999.90;;;11.10;99.90;;;;;;5052295;28;20674;-48
2021/07/11 09:13:24;;;;;;;1999.90;999.90;;;11.20;99.90;;;;;;5052098;28;20646;-45
2021/07/11 09:15:54;;;;;;;1999.90;999.90;;;11.30;99.90;;;;;;5050882;28;20176;-45
2021/07/11 09:18:25;;;;;;;1999.90;999.90;;;11.50;99.90;;;;;;5052059;28;20172;-45
2021/07/11 09:21:06;;;;;;;1999.90;999.90;;;11.60;99.90;;;;;;5052086;28;20206;-44
2021/07/11 09:23:34;;;;;;;1999.90;999.90;;;11.80;99.90;;;;;;5052012;28;20244;-44
2021/07/11 09:26:13;;;;;;;1999.90;999.90;;;11.90;99.90;;;;;;5051960;28;20231;-42
2021/07/11 09:28:49;;;;;;;1999.90;999.90;;;12.00;99.90;;;;;;5051955;28;20178;-43
2021/07/11 09:31:18;;;;;;;1999.90;999.90;;;12.20;99.90;;;;;;5050954;28;20173;-44
2021/07/11 09:33:56;;;;;;;1999.90;999.90;;;12.30;99.90;;;;;;5052153;28;20177;-43
2021/07/11 09:36:24;;;;;;;1999.90;999.90;;;12.40;99.90;;;;;;5052057;28;20565;-44
2021/07/11 09:38:58;;;;;;;1999.90;999.90;;;12.50;99.90;;;;;;5051736;28;20174;-44
2021/07/11 09:41:35;;;;;;;1999.90;999.90;;;12.60;99.90;;;;;;5052154;28;20177;-46
2021/07/11 09:44:07;;;;;;;1999.90;999.90;;;12.80;99.90;;;;;;5055583;28;20240;-44
2021/07/11 09:46:34;;;;;;;1999.90;999.90;;;12.90;99.90;;;;;;5055615;28;20201;-46
2021/07/11 09:49:03;;;;;;;1999.90;999.90;;;13.00;99.90;;;;;;5055492;28;20632;-47
2021/07/11 09:51:30;;;;;;;1999.90;999.90;;;13.20;99.90;;;;;;5055343;28;20211;-45
2021/07/11 09:54:09;;;;;;;1999.90;999.90;;;13.30;99.90;;;;;;5055498;28;20223;-43
2021/07/11 09:56:40;;;;;;;1999.90;999.90;;;13.40;99.90;;;;;;5055664;28;20172;-47
2021/07/11 09:59:13;;;;;;;1999.90;999.90;;;13.50;99.90;;;;;;5055560;28;20196;-45
2021/07/11 10:01:42;;;;;;;1999.90;999.90;;;13.60;99.90;;;;;;5055426;28;20161;-45
2021/07/11 10:04:10;;;;;;;1999.90;999.90;;;13.80;99.90;;;;;;5055327;28;20165;-48
2021/07/11 10:06:39;;;;;;;1999.90;999.90;;;14.00;99.90;;;;;;5055198;28;20262;-45
2021/07/11 10:09:08;;;;;;;1999.90;999.90;;;14.10;99.90;;;;;;5055247;28;20192;-47
2021/07/11 10:11:36;;;;;;;1999.90;999.90;;;14.20;99.90;;;;;;5055035;28;20169;-44
2021/07/11 10:14:03;;;;;;;1999.90;999.90;;;14.30;99.90;;;;;;5055201;28;20246;-45
2021/07/11 10:16:31;;;;;;;1999.90;999.90;;;14.30;99.90;;;;;;5055301;28;20215;-45
2021/07/11 10:19:00;;;;;;;1999.90;999.90;;;14.40;99.90;;;;;;5055271;28;20637;-44
2021/07/11 10:21:33;;;;;;;1999.90;999.90;;;14.50;99.90;;;;;;5055077;28;20344;-46
2021/07/11 10:24:00;;;;;;;1999.90;999.90;;;14.60;99.90;;;;;;5055048;28;20180;-43
2021/07/11 10:26:38;;;;;;;1999.90;999.90;;;14.80;99.90;;;;;;5054534;28;20212;-44
2021/07/11 10:29:19;;;;;;;1999.90;999.90;;;14.80;99.90;;;;;;5054968;28;20307;-44
2021/07/11 10:31:49;;;;;;;1999.90;999.90;;;14.90;99.90;;;;;;5054609;28;20165;-44
2021/07/11 10:34:30;;;;;;;1999.90;999.90;;;15.10;99.90;;;;;;5054678;28;20212;-45
2021/07/11 10:36:57;;;;;;;1999.90;999.90;;;15.20;99.90;;;;;;5054630;28;20617;-45
2021/07/11 10:39:34;;;;;;;1999.90;999.90;;;15.30;99.90;;;;;;5054387;28;20303;-44
2021/07/11 10:42:01;;;;;;;1999.90;999.90;;;15.40;99.90;;;;;;5054409;28;20681;-44
2021/07/11 10:44:28;;;;;;;1999.90;999.90;;;15.40;99.90;;;;;;5053883;28;20188;-44
2021/07/11 10:46:57;;;;;;;1999.90;999.90;;;15.50;99.90;;;;;;5054377;28;20201;-48
2021/07/11 10:49:35;;;;;;;1999.90;999.90;;;15.70;99.90;;;;;;5054224;28;20628;-47
2021/07/11 10:52:05;;;;;;;1999.90;999.90;;;15.80;99.90;;;;;;5053992;28;20220;-45
2021/07/11 10:54:39;;;;;;;1999.90;999.90;;;16.00;99.90;;;;;;5054074;28;20263;-45
2021/07/11 10:57:08;;;;;;;1999.90;999.90;;;16.00;99.90;;;;;;5053948;28;20164;-45
2021/07/11 10:59:40;;;;;;;1999.90;999.90;;;16.10;99.90;;;;;;5054324;28;20173;-45
2021/07/11 11:02:16;;;;;;;1999.90;999.90;;;16.20;99.90;;;;;;5054259;28;20209;-45
2021/07/11 11:04:44;;;;;;;1999.90;999.90;;;16.20;99.90;;;;;;5054099;28;20527;-45
2021/07/11 11:07:16;;;;;;;1999.90;999.90;;;16.30;99.90;;;;;;5053715;28;20205;-45
2021/07/11 11:09:46;;;;;;;1999.90;999.90;;;16.30;99.90;;;;;;5054013;28;20168;-45
2021/07/11 11:12:27;;;;;;;1999.90;999.90;;;16.40;99.40;;;;;;5053347;28;20311;-46
2021/07/11 11:15:03;;;;;;;1999.90;999.90;;;16.50;97.50;;;;;;5053564;28;20161;-45
2021/07/11 11:17:36;;;;;;;1999.90;999.90;;;16.40;99.40;;;;;;5053463;28;20180;-45
2021/07/11 11:20:09;;;;;;;1999.90;999.90;;;16.40;97.00;;;;;;5053680;28;20235;-45
2021/07/11 11:22:36;;;;;;;1999.90;999.90;;;16.50;98.40;;;;;;5053927;28;20165;-46
2021/07/11 11:25:06;;;;;;;1999.90;999.90;;;16.60;98.60;;;;;;5053690;28;20181;-50
2021/07/11 11:27:39;;;;;;;1999.90;999.90;;;16.60;93.20;;;;;;5053387;28;20207;-49
2021/07/11 11:30:31;;;;;;;1999.90;999.90;;;16.60;92.40;;;;;;5053521;28;20675;-45
2021/07/11 11:33:01;;;;;;;1999.90;999.90;;;16.70;91.10;;;;;;5050196;28;20191;-50
2021/07/11 11:35:33;;;;;;;1999.90;999.90;;;16.80;93.00;;;;;;5036110;28;20631;-44
2021/07/11 11:38:06;;;;;;;1999.90;999.90;;;16.80;88.00;;;;;;5053000;28;20248;-43
2021/07/11 11:40:36;;;;;;;1999.90;999.90;;;16.80;89.10;;;;;;5053032;28;20177;-49
2021/07/11 11:43:05;;;;;;;1999.90;999.90;;;16.80;85.70;;;;;;5053897;28;20184;-46
2021/07/11 11:45:36;;;;;;;1999.90;999.90;;;16.90;92.10;;;;;;5035743;28;20580;-46
2021/07/11 11:48:15;;;;;;;1999.90;999.90;;;16.90;89.00;;;;;;5053359;28;20200;-49
2021/07/11 11:50:43;;;;;;;1999.90;999.90;;;16.90;85.10;;;;;;5052649;28;20162;-47
2021/07/11 11:53:14;;;;;;;1999.90;999.90;;;16.90;84.20;;;;;;5052714;28;20609;-49
2021/07/11 11:55:54;;;;;;;1999.90;999.90;;;16.90;82.70;;;;;;5052635;28;20168;-45
2021/07/11 11:58:29;;;;;;;1999.90;999.90;;;16.90;81.40;;;;;;5052504;28;20223;-47
2021/07/11 12:01:06;;;;;;;1999.90;999.90;;;16.90;82.90;;;;;;5052679;28;20182;-45
2021/07/11 12:03:36;;;;;;;1999.90;999.90;;;16.90;86.60;;;;;;5052394;28;20627;-45
2021/07/11 12:06:11;;;;;;;1999.90;999.90;;;16.90;75.30;;;;;;5051648;28;20161;-44
2021/07/11 12:08:41;;;;;;;1999.90;999.90;;;16.90;87.60;;;;;;5052009;28;20215;-46
2021/07/11 12:11:10;;;;;;;1999.90;999.90;;;17.00;83.20;;;;;;5052625;28;20165;-45
2021/07/11 12:13:37;;;;;;;1999.90;999.90;;;17.00;83.30;;;;;;5052821;28;20679;-48
2021/07/11 12:16:09;;;;;;;1999.90;999.90;;;17.00;83.00;;;;;;5052145;28;20165;-43